Time;durP1;ratioP1;P1;durP2;ratioP2;P2;SDS_P1;SDS_P2;PMS_P1;PMS_P2;Temp;Humidity;BMP_temperature;BMP_pressure;BME280_temperature;BME280_humidity;BME280_pressure;Samples;Min_cycle;Max_cycle;Signal;HPM_P1;HPM_P2
2023/06/09 00:00:40;;;;;;;21.38;6.03;;;11.90;99.90;;;;;;5014209;28;20061;-73
2023/06/09 00:03:07;;;;;;;18.05;6.43;;;11.90;99.90;;;;;;4998619;28;20076;-73
2023/06/09 00:05:33;;;;;;;23.77;7.22;;;11.90;99.90;;;;;;5028366;28;20049;-73
2023/06/09 00:08:00;;;;;;;23.13;7.65;;;11.90;99.90;;;;;;5025532;28;20033;-72
2023/06/09 00:10:26;;;;;;;17.08;7.55;;;11.90;99.90;;;;;;5026528;28;20037;-72
2023/06/09 00:12:52;;;;;;;21.80;7.97;;;11.90;99.90;;;;;;5023501;28;21567;-72
2023/06/09 00:15:18;;;;;;;22.73;9.38;;;11.80;99.90;;;;;;5015378;28;20081;-72
2023/06/09 00:17:45;;;;;;;23.15;9.43;;;11.80;99.90;;;;;;5006582;28;20065;-72
2023/06/09 00:20:12;;;;;;;25.38;9.15;;;11.80;99.90;;;;;;5020871;28;20502;-72
2023/06/09 00:22:44;;;;;;;28.70;9.10;;;11.80;99.90;;;;;;5018701;28;20162;-72
2023/06/09 00:25:15;;;;;;;22.73;9.55;;;11.80;99.90;;;;;;5025486;28;20414;-73
2023/06/09 00:27:45;;;;;;;20.65;9.40;;;11.80;99.90;;;;;;5023751;28;20056;-72
2023/06/09 00:30:14;;;;;;;24.20;9.40;;;11.80;99.90;;;;;;5023300;28;20042;-72
2023/06/09 00:32:42;;;;;;;23.95;9.30;;;11.80;99.90;;;;;;5023215;28;20037;-73
2023/06/09 00:35:08;;;;;;;23.20;9.02;;;11.80;99.90;;;;;;5023895;28;20091;-72
2023/06/09 00:37:34;;;;;;;33.13;10.27;;;11.70;99.90;;;;;;5024231;28;20052;-72
2023/06/09 00:40:00;;;;;;;27.90;9.38;;;11.70;99.90;;;;;;5022393;28;20498;-72
2023/06/09 00:42:26;;;;;;;27.30;9.07;;;11.70;99.90;;;;;;5024034;28;20045;-72
2023/06/09 00:44:52;;;;;;;22.13;8.52;;;11.70;99.90;;;;;;5019437;28;20064;-72
2023/06/09 00:47:18;;;;;;;21.45;8.45;;;11.70;99.90;;;;;;5023644;28;20034;-73
2023/06/09 00:49:44;;;;;;;20.45;8.38;;;11.70;99.90;;;;;;5026816;28;20044;-72
2023/06/09 00:52:10;;;;;;;24.60;8.25;;;11.70;99.90;;;;;;5008673;28;20502;-72
2023/06/09 00:54:37;;;;;;;20.10;7.95;;;11.70;99.90;;;;;;5021743;28;20047;-72
2023/06/09 00:57:05;;;;;;;20.38;7.55;;;11.70;99.90;;;;;;5005392;28;20466;-73
2023/06/09 00:59:33;;;;;;;23.35;8.60;;;11.70;99.90;;;;;;5024090;28;20136;-67
2023/06/09 01:01:59;;;;;;;26.17;7.18;;;11.70;99.90;;;;;;5020501;28;20049;-72
2023/06/09 01:04:25;;;;;;;22.45;7.72;;;11.60;99.90;;;;;;5023553;28;20373;-72
2023/06/09 01:07:07;;;;;;;18.98;7.70;;;11.60;99.90;;;;;;5019511;28;20045;-72
2023/06/09 01:09:41;;;;;;;21.45;7.55;;;11.60;99.90;;;;;;5019314;28;20104;-72
2023/06/09 01:12:13;;;;;;;20.17;7.20;;;11.60;99.90;;;;;;5022919;28;20048;-72
2023/06/09 01:14:46;;;;;;;;;;;11.60;99.90;;;;;;5021125;28;20053;-72
2023/06/09 01:17:18;;;;;;;19.90;6.90;;;11.60;99.90;;;;;;5006713;28;20294;-73
2023/06/09 01:19:45;;;;;;;;;;;11.60;99.90;;;;;;5024946;28;20417;-71
2023/06/09 01:22:32;;;;;;;22.13;7.45;;;11.60;99.90;;;;;;5023717;28;19932;-72
2023/06/09 01:25:26;;;;;;;20.88;7.45;;;11.60;99.90;;;;;;5038352;28;20398;-72
2023/06/09 01:27:57;;;;;;;18.02;7.10;;;11.60;99.90;;;;;;5018228;28;20046;-72
2023/06/09 01:30:29;;;;;;;18.65;7.35;;;11.60;99.90;;;;;;5017881;28;20398;-72
2023/06/09 01:32:57;;;;;;;23.20;7.88;;;11.60;99.90;;;;;;5018031;28;20072;-72
2023/06/09 01:35:24;;;;;;;19.02;7.32;;;11.60;99.90;;;;;;5016731;28;20061;-72
2023/06/09 01:37:51;;;;;;;19.52;7.63;;;11.60;99.90;;;;;;5014646;28;20502;-72
2023/06/09 01:40:17;;;;;;;22.35;8.13;;;11.60;99.90;;;;;;5019165;28;20041;-72
2023/06/09 01:42:43;;;;;;;20.35;8.18;;;11.60;99.90;;;;;;5029031;28;20045;-72
2023/06/09 01:45:09;;;;;;;22.58;7.90;;;11.70;99.90;;;;;;5024993;28;20076;-72
2023/06/09 01:47:35;;;;;;;23.00;7.57;;;11.60;99.90;;;;;;5024200;28;20072;-72
2023/06/09 01:50:12;;;;;;;26.20;7.88;;;11.60;99.90;;;;;;5011878;28;20124;-71
2023/06/09 01:52:58;;;;;;;22.45;7.47;;;11.60;99.90;;;;;;5002955;28;20421;-72
2023/06/09 01:55:32;;;;;;;17.42;7.50;;;11.60;99.90;;;;;;5026727;28;20042;-72
2023/06/09 01:58:17;;;;;;;24.30;7.53;;;11.90;99.90;;;;;;5030758;28;20498;-72
2023/06/09 02:00:46;;;;;;;21.00;7.97;;;11.60;99.90;;;;;;5023824;28;20120;-72
2023/06/09 02:03:17;;;;;;;20.90;8.00;;;11.60;99.90;;;;;;5024505;28;20402;-72
2023/06/09 02:05:45;;;;;;;21.02;7.15;;;11.60;99.90;;;;;;5045390;28;20046;-72
2023/06/09 02:08:11;;;;;;;20.38;7.55;;;11.60;99.90;;;;;;5027508;28;20081;-72
2023/06/09 02:10:39;;;;;;;23.40;7.43;;;11.60;99.90;;;;;;5023205;28;20037;-72
2023/06/09 02:13:19;;;;;;;24.15;7.47;;;11.50;99.90;;;;;;5018700;28;20029;-72
2023/06/09 02:15:46;;;;;;;25.20;7.32;;;11.50;99.90;;;;;;5021239;28;20033;-72
2023/06/09 02:18:13;;;;;;;19.10;6.53;;;11.50;99.90;;;;;;5027469;28;20106;-72
2023/06/09 02:20:40;;;;;;;20.95;7.18;;;11.50;99.90;;;;;;5026053;28;20156;-72
2023/06/09 02:23:06;;;;;;;24.95;7.43;;;11.50;99.90;;;;;;5027690;28;20128;-72
2023/06/09 02:25:32;;;;;;;23.88;8.18;;;11.60;99.90;;;;;;5024537;28;20049;-72
2023/06/09 02:28:02;;;;;;;17.13;6.82;;;11.50;99.90;;;;;;5010302;28;20064;-73
2023/06/09 02:30:28;;;;;;;20.20;7.20;;;11.50;99.90;;;;;;5022108;28;20045;-71
2023/06/09 02:32:55;;;;;;;19.02;7.53;;;11.50;99.90;;;;;;5025850;28;20071;-72
2023/06/09 02:35:21;;;;;;;20.20;7.10;;;11.50;99.90;;;;;;5012053;28;20378;-73
2023/06/09 02:37:47;;;;;;;26.10;7.88;;;11.50;99.90;;;;;;5028077;28;20034;-72
2023/06/09 02:40:13;;;;;;;19.55;7.47;;;11.50;99.90;;;;;;5022076;28;20042;-72
2023/06/09 02:42:40;;;;;;;19.67;7.78;;;11.50;99.90;;;;;;5020136;28;20094;-72
2023/06/09 02:45:07;;;;;;;21.35;7.75;;;11.50;99.90;;;;;;5026358;28;21141;-72
2023/06/09 02:47:32;;;;;;;18.55;7.38;;;11.50;99.90;;;;;;5025315;28;20612;-72
2023/06/09 02:49:58;;;;;;;19.38;7.65;;;11.50;99.90;;;;;;5021776;28;20045;-72
2023/06/09 02:52:28;;;;;;;26.60;7.85;;;11.50;99.90;;;;;;5024530;28;20097;-72
2023/06/09 02:54:54;;;;;;;24.55;7.60;;;11.50;99.90;;;;;;5026002;28;20049;-72
2023/06/09 02:57:20;;;;;;;24.85;7.93;;;11.50;99.90;;;;;;5026081;28;20584;-72
2023/06/09 02:59:46;;;;;;;23.50;8.02;;;11.50;99.90;;;;;;5022704;28;20037;-71
2023/06/09 03:02:12;;;;;;;24.35;8.18;;;11.50;99.90;;;;;;5028910;28;20141;-73
2023/06/09 03:04:40;;;;;;;24.38;8.02;;;11.50;99.90;;;;;;5024028;28;20052;-71
2023/06/09 03:07:09;;;;;;;19.63;8.98;;;11.60;99.90;;;;;;5024875;28;20042;-72
2023/06/09 03:09:37;;;;;;;20.10;8.88;;;11.70;99.90;;;;;;5024364;28;20045;-72
2023/06/09 03:12:03;;;;;;;24.25;8.93;;;11.50;99.90;;;;;;5022981;28;20077;-72
2023/06/09 03:14:29;;;;;;;24.95;9.20;;;11.50;99.90;;;;;;5022907;28;20041;-71
2023/06/09 03:16:55;;;;;;;28.38;9.70;;;11.50;99.90;;;;;;5021982;28;20045;-71
2023/06/09 03:19:20;;;;;;;24.45;9.82;;;11.50;99.90;;;;;;5022774;28;20083;-71
2023/06/09 03:21:46;;;;;;;24.15;9.18;;;11.50;99.90;;;;;;5023183;28;20068;-67
2023/06/09 03:24:12;;;;;;;26.45;9.90;;;11.50;99.90;;;;;;5038628;28;20053;-68
2023/06/09 03:26:38;;;;;;;31.77;9.18;;;11.90;99.90;;;;;;5023714;28;20041;-68
2023/06/09 03:29:03;;;;;;;25.25;9.82;;;11.50;99.90;;;;;;5017212;28;20041;-68
2023/06/09 03:31:30;;;;;;;22.95;9.27;;;11.50;99.90;;;;;;5022440;28;20690;-67
2023/06/09 03:33:56;;;;;;;26.95;9.80;;;11.50;99.90;;;;;;5023116;28;20099;-67
2023/06/09 03:36:23;;;;;;;28.58;10.35;;;11.50;99.90;;;;;;5018084;28;20049;-67
2023/06/09 03:38:50;;;;;;;27.27;10.15;;;11.50;99.90;;;;;;5025901;28;20414;-67
2023/06/09 03:41:16;;;;;;;23.08;10.88;;;11.50;99.90;;;;;;5027627;28;20064;-68
2023/06/09 03:43:41;;;;;;;25.25;9.50;;;11.50;99.90;;;;;;5024562;28;20042;-67
2023/06/09 03:46:07;;;;;;;32.08;10.07;;;11.80;99.90;;;;;;5023478;28;20044;-68
2023/06/09 03:48:33;;;;;;;23.10;9.93;;;11.50;99.90;;;;;;5026960;28;20414;-69
2023/06/09 03:50:58;;;;;;;25.90;10.43;;;11.50;99.90;;;;;;5020339;28;20048;-68
2023/06/09 03:53:24;;;;;;;26.88;10.45;;;11.50;99.90;;;;;;5020199;28;20492;-67
2023/06/09 03:55:50;;;;;;;21.67;9.38;;;11.50;99.90;;;;;;5022794;28;20120;-68
2023/06/09 03:58:16;;;;;;;25.88;9.32;;;11.50;99.90;;;;;;5024899;28;20538;-67
2023/06/09 04:00:42;;;;;;;29.30;11.80;;;11.50;99.90;;;;;;5021893;28;20094;-68
2023/06/09 04:03:08;;;;;;;26.10;10.45;;;11.60;99.90;;;;;;5024936;28;20524;-68
2023/06/09 04:05:34;;;;;;;25.77;10.38;;;11.50;99.90;;;;;;5024349;28;20062;-68
2023/06/09 04:07:59;;;;;;;28.10;11.55;;;11.50;99.90;;;;;;5026187;28;20533;-68
2023/06/09 04:10:25;;;;;;;29.50;10.18;;;11.50;99.90;;;;;;5024454;28;20135;-68
2023/06/09 04:12:51;;;;;;;36.00;11.00;;;11.60;99.90;;;;;;5018724;28;20049;-68
2023/06/09 04:15:18;;;;;;;32.70;10.80;;;11.60;99.90;;;;;;5026709;28;20053;-68
2023/06/09 04:17:43;;;;;;;20.67;10.50;;;11.60;99.90;;;;;;5022618;28;20057;-68
2023/06/09 04:20:10;;;;;;;33.83;11.52;;;11.60;99.90;;;;;;5022301;28;20061;-68
2023/06/09 04:22:35;;;;;;;27.92;10.30;;;11.60;99.90;;;;;;5024320;28;20488;-68
2023/06/09 04:25:01;;;;;;;28.25;9.68;;;11.70;99.90;;;;;;5020609;28;20045;-68
2023/06/09 04:27:28;;;;;;;31.02;10.73;;;11.70;99.90;;;;;;5038929;28;20045;-68
2023/06/09 04:29:54;;;;;;;27.40;10.57;;;11.70;99.90;;;;;;5018032;28;20045;-68
2023/06/09 04:32:20;;;;;;;27.88;10.85;;;11.70;99.90;;;;;;5005309;28;20041;-67
2023/06/09 04:34:46;;;;;;;24.08;10.20;;;11.80;99.90;;;;;;5017812;28;20045;-68
2023/06/09 04:37:12;;;;;;;26.00;11.48;;;11.90;99.90;;;;;;5019745;28;20046;-68
2023/06/09 04:39:41;;;;;;;23.45;10.27;;;12.00;99.90;;;;;;5024848;28;20076;-68
2023/06/09 04:42:08;;;;;;;29.42;10.25;;;12.20;99.90;;;;;;5004310;28;20037;-68
2023/06/09 04:44:34;;;;;;;20.65;9.35;;;12.40;99.90;;;;;;5022212;28;20057;-68
2023/06/09 04:47:02;;;;;;;24.75;9.18;;;12.60;99.90;;;;;;5023702;28;20029;-68
2023/06/09 04:49:30;;;;;;;21.75;9.40;;;12.80;99.90;;;;;;5022543;28;20041;-68
2023/06/09 04:51:57;;;;;;;17.67;8.20;;;12.90;99.90;;;;;;5020976;28;20045;-69
2023/06/09 04:54:25;;;;;;;24.40;9.05;;;13.10;99.90;;;;;;5019976;28;20135;-69
2023/06/09 04:56:52;;;;;;;21.90;8.32;;;13.20;99.90;;;;;;5021651;28;20045;-69
2023/06/09 04:59:18;;;;;;;25.13;8.05;;;13.40;99.90;;;;;;5018425;28;20418;-69
2023/06/09 05:01:47;;;;;;;21.08;7.15;;;13.50;99.90;;;;;;5019591;28;20044;-68
2023/06/09 05:04:13;;;;;;;15.93;6.97;;;13.60;99.90;;;;;;5023745;28;20478;-68
2023/06/09 05:06:40;;;;;;;18.42;6.70;;;13.80;99.90;;;;;;5024895;28;20498;-69
2023/06/09 05:09:06;;;;;;;20.27;6.70;;;13.90;99.90;;;;;;5026039;28;20072;-68
2023/06/09 05:11:34;;;;;;;17.92;6.93;;;14.10;99.90;;;;;;5019471;28;20045;-69
2023/06/09 05:14:00;;;;;;;15.70;6.30;;;14.20;99.90;;;;;;5021510;28;20726;-68
2023/06/09 05:16:27;;;;;;;17.38;6.15;;;14.40;99.90;;;;;;5023786;28;20037;-69
2023/06/09 05:18:53;;;;;;;19.42;6.32;;;14.60;99.90;;;;;;5022071;28;20052;-69
2023/06/09 05:21:21;;;;;;;20.10;6.20;;;14.60;99.90;;;;;;5014306;28;20049;-69
2023/06/09 05:23:47;;;;;;;15.13;5.95;;;14.80;99.90;;;;;;5024686;28;20045;-69
2023/06/09 05:26:13;;;;;;;20.15;5.35;;;14.80;99.90;;;;;;5018462;28;20044;-68
2023/06/09 05:28:39;;;;;;;18.92;5.72;;;14.90;99.90;;;;;;5017008;28;20041;-69
2023/06/09 05:31:05;;;;;;;20.95;5.28;;;14.90;99.90;;;;;;5019560;28;20052;-68
2023/06/09 05:33:32;;;;;;;16.80;5.60;;;14.90;99.90;;;;;;5016095;28;20431;-68
2023/06/09 05:35:58;;;;;;;23.63;5.60;;;14.70;99.90;;;;;;5006360;28;20037;-68
2023/06/09 05:38:25;;;;;;;15.85;5.47;;;14.50;99.90;;;;;;5016123;28;20058;-68
2023/06/09 05:40:52;;;;;;;20.98;6.07;;;14.40;99.90;;;;;;5019013;28;20037;-69
2023/06/09 05:43:18;;;;;;;20.08;6.05;;;14.30;99.90;;;;;;5018537;28;20723;-68
2023/06/09 05:45:44;;;;;;;23.50;7.07;;;14.30;99.90;;;;;;5003765;28;20050;-68
2023/06/09 05:48:10;;;;;;;22.52;6.28;;;14.20;99.90;;;;;;5001624;28;20078;-68
2023/06/09 05:50:37;;;;;;;20.00;6.75;;;14.20;99.90;;;;;;5013427;28;20483;-68
2023/06/09 05:53:03;;;;;;;21.63;6.90;;;14.20;99.90;;;;;;5021988;28;20049;-68
2023/06/09 05:55:29;;;;;;;15.82;6.43;;;14.10;99.90;;;;;;5017677;28;20403;-69
2023/06/09 05:57:56;;;;;;;20.67;6.55;;;14.20;99.90;;;;;;5018744;28;20041;-69
2023/06/09 06:00:29;;;;;;;18.88;6.13;;;14.10;99.90;;;;;;5017941;28;20053;-68
2023/06/09 06:02:55;;;;;;;22.05;6.50;;;14.20;99.90;;;;;;5020470;28;20045;-68
2023/06/09 06:05:21;;;;;;;22.50;6.97;;;14.30;99.90;;;;;;5020240;28;20496;-68
2023/06/09 06:07:46;;;;;;;21.70;6.65;;;14.40;99.90;;;;;;5019551;28;20042;-68
2023/06/09 06:10:12;;;;;;;16.17;6.13;;;14.50;99.90;;;;;;5020611;28;20402;-68
2023/06/09 06:12:39;;;;;;;23.52;7.20;;;14.60;99.90;;;;;;5015803;28;20421;-68
2023/06/09 06:15:05;;;;;;;22.67;6.68;;;14.70;99.90;;;;;;5017258;28;20049;-68
2023/06/09 06:17:31;;;;;;;22.48;6.32;;;14.90;99.90;;;;;;5014856;28;20062;-68
2023/06/09 06:19:57;;;;;;;23.63;6.82;;;15.10;99.90;;;;;;5002930;28;20696;-68
2023/06/09 06:22:24;;;;;;;19.73;6.25;;;15.30;99.90;;;;;;5022172;28;20195;-68
2023/06/09 06:24:50;;;;;;;15.82;6.03;;;15.50;99.90;;;;;;5015821;28;20049;-68
2023/06/09 06:27:15;;;;;;;34.22;7.10;;;15.50;99.90;;;;;;5016204;28;20620;-68
2023/06/09 06:29:44;;;;;;;17.90;6.03;;;15.40;99.90;;;;;;5018912;28;20128;-69
2023/06/09 06:32:10;;;;;;;18.90;6.68;;;15.30;99.90;;;;;;4999515;28;20124;-68
2023/06/09 06:34:36;;;;;;;16.17;6.18;;;15.20;99.90;;;;;;5006163;28;20049;-68
2023/06/09 06:37:01;;;;;;;16.90;6.57;;;15.20;99.90;;;;;;5016662;28;20060;-68
2023/06/09 06:39:27;;;;;;;23.05;7.20;;;15.20;99.90;;;;;;5016135;28;20048;-68
2023/06/09 06:41:53;;;;;;;16.65;7.22;;;15.10;99.90;;;;;;5016910;28;20045;-68
2023/06/09 06:44:19;;;;;;;21.85;6.75;;;15.10;99.90;;;;;;5016373;28;20050;-68
2023/06/09 06:46:45;;;;;;;19.17;6.45;;;15.10;99.90;;;;;;5018369;28;20041;-68
2023/06/09 06:49:10;;;;;;;21.83;6.75;;;15.10;99.90;;;;;;5020118;28;20067;-68
2023/06/09 06:51:36;;;;;;;19.00;6.68;;;15.10;99.90;;;;;;5018810;28;20077;-68
2023/06/09 06:54:03;;;;;;;21.02;6.45;;;15.10;99.90;;;;;;5022897;28;20061;-68
2023/06/09 06:56:29;;;;;;;23.08;7.25;;;15.10;99.90;;;;;;5020918;28;20050;-69
2023/06/09 06:58:55;;;;;;;21.27;7.20;;;15.20;99.90;;;;;;5005303;28;20045;-70
2023/06/09 07:01:21;;;;;;;18.70;6.55;;;15.20;99.90;;;;;;5015577;28;20095;-68
2023/06/09 07:03:50;;;;;;;17.85;6.85;;;15.20;99.90;;;;;;5003567;28;20526;-69
2023/06/09 07:06:16;;;;;;;22.02;7.05;;;15.30;99.90;;;;;;5020129;28;20460;-68
2023/06/09 07:08:43;;;;;;;20.27;7.90;;;15.30;99.90;;;;;;5018824;28;20051;-69
2023/06/09 07:11:09;;;;;;;25.83;7.95;;;15.40;99.90;;;;;;5018950;28;20073;-68
2023/06/09 07:13:34;;;;;;;18.52;7.45;;;15.50;99.90;;;;;;5001546;28;20057;-68
2023/06/09 07:16:01;;;;;;;18.15;6.65;;;15.60;99.90;;;;;;5009357;28;20669;-68
2023/06/09 07:18:27;;;;;;;16.27;6.72;;;15.70;99.90;;;;;;5009623;28;20045;-68
2023/06/09 07:20:53;;;;;;;25.02;7.05;;;15.70;99.90;;;;;;5017842;28;20037;-69
2023/06/09 07:23:19;;;;;;;18.33;7.53;;;15.90;99.90;;;;;;5014846;28;20056;-72
2023/06/09 07:25:45;;;;;;;22.70;7.32;;;16.00;99.90;;;;;;5008188;28;20305;-73
2023/06/09 07:28:11;;;;;;;21.10;7.20;;;16.20;99.90;;;;;;5011310;28;20045;-73
2023/06/09 07:30:40;;;;;;;25.85;7.28;;;16.30;99.90;;;;;;5012140;28;20045;-73
2023/06/09 07:33:06;;;;;;;23.70;7.25;;;16.50;99.90;;;;;;5011647;28;20470;-72
2023/06/09 07:35:33;;;;;;;15.95;6.45;;;16.60;99.90;;;;;;4996398;28;20060;-73
2023/06/09 07:37:58;;;;;;;22.95;6.30;;;16.70;99.90;;;;;;5008832;28;21721;-72
2023/06/09 07:40:24;;;;;;;18.80;6.72;;;16.80;99.90;;;;;;5015189;28;20073;-73
2023/06/09 07:42:50;;;;;;;19.55;6.65;;;16.90;99.90;;;;;;5011910;28;20540;-73
2023/06/09 07:45:16;;;;;;;20.02;6.60;;;17.00;99.90;;;;;;5000117;28;20045;-73
2023/06/09 07:47:41;;;;;;;20.77;6.90;;;17.10;99.90;;;;;;5021800;28;20678;-74
2023/06/09 07:50:08;;;;;;;20.50;6.50;;;17.20;99.90;;;;;;5015772;28;20045;-74
2023/06/09 07:52:36;;;;;;;16.75;5.90;;;17.30;99.90;;;;;;5003323;28;20553;-73
2023/06/09 07:55:06;;;;;;;17.27;6.63;;;17.40;99.90;;;;;;4997302;28;20048;-73
2023/06/09 07:57:32;;;;;;;17.30;6.65;;;17.40;99.90;;;;;;5014839;28;20038;-73
2023/06/09 07:59:58;;;;;;;16.55;5.65;;;17.60;99.90;;;;;;5013702;28;20483;-74
2023/06/09 08:02:23;;;;;;;17.35;6.20;;;17.60;99.90;;;;;;5016258;28;20049;-74
2023/06/09 08:04:49;;;;;;;18.95;5.75;;;17.80;99.90;;;;;;5026536;28;20111;-74
2023/06/09 08:07:15;;;;;;;15.20;5.82;;;17.90;99.90;;;;;;5015388;28;20087;-74
2023/06/09 08:09:41;;;;;;;15.23;6.13;;;18.00;99.90;;;;;;5022133;28;20053;-74
2023/06/09 08:12:07;;;;;;;17.25;5.75;;;18.10;99.90;;;;;;5002973;28;20046;-74
2023/06/09 08:14:33;;;;;;;22.52;6.00;;;18.20;99.90;;;;;;5008626;28;20115;-73
2023/06/09 08:16:59;;;;;;;16.20;5.80;;;18.30;99.90;;;;;;5017976;28;20473;-74
2023/06/09 08:19:25;;;;;;;17.45;5.53;;;18.40;99.90;;;;;;5021791;28;20045;-74
2023/06/09 08:21:51;;;;;;;17.95;5.13;;;18.50;99.90;;;;;;5022230;28;20097;-74
2023/06/09 08:24:17;;;;;;;14.75;5.00;;;18.60;99.90;;;;;;5022279;28;20037;-74
2023/06/09 08:26:43;;;;;;;17.98;5.63;;;18.80;99.90;;;;;;5020771;28;20053;-74
2023/06/09 08:29:10;;;;;;;11.27;5.53;;;18.90;99.90;;;;;;5021288;28;20453;-74
2023/06/09 08:31:39;;;;;;;14.90;5.07;;;19.00;99.90;;;;;;5013798;28;20493;-74
2023/06/09 08:34:06;;;;;;;15.23;4.95;;;19.10;99.90;;;;;;5018221;28;20208;-74
2023/06/09 08:36:32;;;;;;;15.73;5.47;;;19.20;99.90;;;;;;5019592;28;20565;-74
2023/06/09 08:38:57;;;;;;;13.30;4.97;;;19.30;99.90;;;;;;5017128;28;20145;-74
2023/06/09 08:41:27;;;;;;;16.90;5.18;;;19.30;99.90;;;;;;5021652;28;20065;-74
2023/06/09 08:43:53;;;;;;;18.08;5.22;;;19.40;99.90;;;;;;5020829;28;20053;-75
2023/06/09 08:46:20;;;;;;;11.85;4.38;;;19.50;99.90;;;;;;5013994;28;20072;-74
2023/06/09 08:48:59;;;;;;;13.15;4.95;;;19.60;99.90;;;;;;5023975;28;20132;-74
2023/06/09 08:51:25;;;;;;;14.75;4.80;;;19.70;99.90;;;;;;5023606;28;20623;-74
2023/06/09 08:53:57;;;;;;;18.45;5.13;;;19.80;99.90;;;;;;5022116;28;20692;-73
2023/06/09 08:56:23;;;;;;;15.32;5.60;;;19.90;99.90;;;;;;5018359;28;20055;-74
2023/06/09 08:58:50;;;;;;;12.73;4.72;;;20.00;99.90;;;;;;5025200;28;20045;-74
2023/06/09 09:01:20;;;;;;;14.70;4.85;;;20.10;99.90;;;;;;5025131;28;20402;-73
2023/06/09 09:03:47;;;;;;;16.10;5.00;;;20.20;99.90;;;;;;5017766;28;20068;-74
2023/06/09 09:06:13;;;;;;;13.55;5.13;;;20.20;99.90;;;;;;5014992;28;20045;-73
2023/06/09 09:08:40;;;;;;;13.52;4.93;;;20.30;99.90;;;;;;5018934;28;20064;-73
2023/06/09 09:11:05;;;;;;;12.60;4.28;;;20.40;99.90;;;;;;5016197;28;20042;-74
2023/06/09 09:13:32;;;;;;;12.68;5.03;;;20.40;99.90;;;;;;5021001;28;20107;-74
2023/06/09 09:16:00;;;;;;;10.88;4.55;;;20.50;99.90;;;;;;5025325;28;20144;-74
2023/06/09 09:18:34;;;;;;;12.43;4.57;;;20.60;99.90;;;;;;5024070;28;20038;-73
2023/06/09 09:21:01;;;;;;;18.35;4.95;;;20.70;99.90;;;;;;5024204;28;20037;-74
2023/06/09 09:23:33;;;;;;;14.80;4.53;;;20.80;99.90;;;;;;5019136;28;20037;-74
2023/06/09 09:26:00;;;;;;;20.33;5.75;;;20.90;99.90;;;;;;5019190;28;20037;-73
2023/06/09 09:28:40;;;;;;;12.45;4.47;;;21.00;99.90;;;;;;5021840;28;20095;-74
2023/06/09 09:31:08;;;;;;;13.63;5.43;;;21.00;99.90;;;;;;5005374;28;20050;-74
2023/06/09 09:33:38;;;;;;;15.10;4.78;;;21.10;99.90;;;;;;5021137;28;20144;-74
2023/06/09 09:36:09;;;;;;;11.70;4.90;;;21.20;99.90;;;;;;5019437;28;20485;-74
2023/06/09 09:38:34;;;;;;;14.20;4.55;;;21.30;99.90;;;;;;5024844;28;20119;-74
2023/06/09 09:41:00;;;;;;;12.15;4.60;;;21.40;99.90;;;;;;5022702;28;20038;-74
2023/06/09 09:43:30;;;;;;;13.48;4.50;;;21.40;99.90;;;;;;5009633;28;20049;-75
2023/06/09 09:46:01;;;;;;;13.43;4.70;;;21.60;99.90;;;;;;5020049;28;20045;-75
2023/06/09 09:48:26;;;;;;;;;;;21.60;99.90;;;;;;5025158;28;20053;-75
2023/06/09 09:50:57;;;;;;;12.90;4.47;;;21.80;99.90;;;;;;5024885;28;19928;-74
2023/06/09 09:53:24;;;;;;;12.30;4.57;;;21.80;99.90;;;;;;5004973;28;20049;-74
2023/06/09 09:55:52;;;;;;;13.02;5.22;;;21.90;99.90;;;;;;5036818;28;20099;-73
2023/06/09 09:58:20;;;;;;;12.63;4.75;;;22.00;99.90;;;;;;5023453;28;20116;-73
2023/06/09 10:00:49;;;;;;;8.48;4.22;;;22.10;99.90;;;;;;5015465;28;20038;-74
2023/06/09 10:03:17;;;;;;;13.75;5.53;;;22.20;99.90;;;;;;5006823;28;20093;-73
2023/06/09 10:05:47;;;;;;;12.82;4.68;;;22.30;99.90;;;;;;5023386;28;20481;-74
2023/06/09 10:08:19;;;;;;;14.93;4.95;;;22.30;99.90;;;;;;5024182;28;20052;-74
2023/06/09 10:10:45;;;;;;;8.82;4.00;;;22.40;99.90;;;;;;5009099;28;20065;-74
2023/06/09 10:13:13;;;;;;;11.80;4.57;;;22.40;99.90;;;;;;5008898;28;20083;-72
2023/06/09 10:15:42;;;;;;;14.80;4.90;;;22.50;99.90;;;;;;5017663;28;20702;-73
2023/06/09 10:18:10;;;;;;;13.32;5.20;;;22.60;99.90;;;;;;5024584;28;20045;-73
2023/06/09 10:20:36;;;;;;;11.18;4.25;;;22.70;99.90;;;;;;5020596;28;20600;-73
2023/06/09 10:23:04;;;;;;;12.32;4.50;;;22.70;99.90;;;;;;5026136;28;20452;-73
2023/06/09 10:25:30;;;;;;;13.40;4.22;;;22.80;99.90;;;;;;5024278;28;20099;-73
2023/06/09 10:27:56;;;;;;;11.05;4.50;;;22.90;99.90;;;;;;5021918;28;20045;-73
2023/06/09 10:30:22;;;;;;;14.07;4.22;;;23.00;99.90;;;;;;5020082;28;20048;-73
2023/06/09 10:32:58;;;;;;;13.30;4.22;;;23.00;99.90;;;;;;5017765;28;20085;-74
2023/06/09 10:35:27;;;;;;;15.10;4.30;;;23.10;99.90;;;;;;5036154;28;20192;-74
2023/06/09 10:37:54;;;;;;;12.20;4.15;;;23.20;99.90;;;;;;5027322;28;20203;-73
2023/06/09 10:40:30;;;;;;;14.13;4.45;;;23.30;99.90;;;;;;5007819;28;20041;-74
2023/06/09 10:43:17;;;;;;;13.18;4.82;;;23.40;99.90;;;;;;5019701;28;20406;-73
2023/06/09 10:45:53;;;;;;;12.20;4.65;;;23.50;99.90;;;;;;5020936;28;20038;-73
2023/06/09 10:48:41;;;;;;;11.43;5.00;;;23.50;99.90;;;;;;5013008;28;20045;-74
2023/06/09 10:51:28;;;;;;;12.60;5.60;;;23.60;99.90;;;;;;5016093;28;20096;-73
2023/06/09 10:54:12;;;;;;;15.20;4.30;;;23.70;99.90;;;;;;5020428;28;20041;-73
2023/06/09 10:56:45;;;;;;;10.60;4.53;;;23.70;99.90;;;;;;5018960;28;20045;-73
2023/06/09 10:59:26;;;;;;;13.18;4.85;;;23.80;99.90;;;;;;5013250;28;20040;-73
2023/06/09 11:02:01;;;;;;;;;;;23.80;99.90;;;;;;5020999;28;20042;-72
2023/06/09 11:04:43;;;;;;;10.65;3.90;;;23.80;99.90;;;;;;5019645;28;19925;-73
2023/06/09 11:07:11;;;;;;;10.93;4.53;;;24.00;99.90;;;;;;5022400;28;20057;-74
2023/06/09 11:09:37;;;;;;;11.32;5.07;;;24.00;99.90;;;;;;5024214;28;20055;-73
2023/06/09 11:12:04;;;;;;;11.48;4.40;;;24.10;99.90;;;;;;5023705;28;20037;-73
2023/06/09 11:14:45;;;;;;;13.55;4.63;;;24.20;99.90;;;;;;5024332;28;20079;-74
2023/06/09 11:17:30;;;;;;;18.17;5.07;;;24.20;99.90;;;;;;5022063;28;20044;-73
2023/06/09 11:20:26;;;;;;;11.48;5.18;;;24.30;99.90;;;;;;5023149;28;20490;-73
2023/06/09 11:22:51;;;;;;;8.35;3.88;;;24.40;99.90;;;;;;5026298;28;20048;-74
2023/06/09 11:25:17;;;;;;;12.32;5.53;;;24.40;99.90;;;;;;5000164;28;20041;-73
2023/06/09 11:27:44;;;;;;;10.65;4.30;;;24.50;99.90;;;;;;5001173;28;20038;-73
2023/06/09 11:30:18;;;;;;;19.65;5.13;;;24.50;99.90;;;;;;5021178;28;20409;-74
2023/06/09 11:32:56;;;;;;;12.60;5.07;;;24.50;99.90;;;;;;5021571;28;20041;-74
2023/06/09 11:35:28;;;;;;;11.35;5.18;;;24.60;99.90;;;;;;5017206;28;20104;-73
2023/06/09 11:38:02;;;;;;;10.07;4.13;;;24.70;99.90;;;;;;5023418;28;20052;-72
2023/06/09 11:40:40;;;;;;;13.27;5.22;;;24.80;99.90;;;;;;5015085;28;20713;-73
2023/06/09 11:43:07;;;;;;;12.10;4.43;;;24.80;99.90;;;;;;5021274;28;20128;-74
2023/06/09 11:45:34;;;;;;;15.70;4.82;;;24.90;99.90;;;;;;5019334;28;20125;-73
2023/06/09 11:48:01;;;;;;;10.20;4.55;;;25.00;99.90;;;;;;5015239;28;20533;-74
2023/06/09 11:50:40;;;;;;;13.13;4.45;;;25.00;99.90;;;;;;5012053;28;20520;-74
2023/06/09 11:53:17;;;;;;;10.48;4.55;;;25.10;99.90;;;;;;4998584;28;20066;-74
2023/06/09 11:55:43;;;;;;;9.18;4.22;;;25.20;99.90;;;;;;5018731;28;20052;-73
2023/06/09 11:58:10;;;;;;;11.32;4.18;;;25.20;99.90;;;;;;5021049;28;20379;-73
2023/06/09 12:00:42;;;;;;;9.32;4.30;;;25.30;99.90;;;;;;5021170;28;20041;-74
2023/06/09 12:03:09;;;;;;;10.98;4.22;;;25.30;99.90;;;;;;5016392;28;20057;-73
2023/06/09 12:05:35;;;;;;;9.60;4.13;;;25.40;99.90;;;;;;5018979;28;20082;-74
2023/06/09 12:08:02;;;;;;;8.05;3.97;;;25.50;99.90;;;;;;5014572;28;20033;-73
2023/06/09 12:10:29;;;;;;;14.23;5.05;;;25.50;99.90;;;;;;5030404;28;20037;-73
2023/06/09 12:12:59;;;;;;;12.35;4.20;;;25.50;99.90;;;;;;5019034;28;20049;-74
2023/06/09 12:15:26;;;;;;;11.60;4.40;;;25.60;99.90;;;;;;5021429;28;20045;-73
2023/06/09 12:17:57;;;;;;;9.27;3.72;;;25.60;99.90;;;;;;5014986;28;20052;-74
2023/06/09 12:20:35;;;;;;;10.48;4.45;;;25.60;99.90;;;;;;5019157;28;20523;-73
2023/06/09 12:23:06;;;;;;;10.40;4.40;;;25.70;99.90;;;;;;5018879;28;20110;-74
2023/06/09 12:25:43;;;;;;;10.55;4.50;;;25.70;98.60;;;;;;5014582;28;20057;-73
2023/06/09 12:28:21;;;;;;;7.35;3.70;;;25.70;98.20;;;;;;5018498;28;20045;-74
2023/06/09 12:30:57;;;;;;;9.23;4.43;;;25.80;97.90;;;;;;5018862;28;20053;-75
2023/06/09 12:33:24;;;;;;;9.10;3.90;;;25.80;99.20;;;;;;5022147;28;20041;-74
2023/06/09 12:36:05;;;;;;;12.63;4.65;;;25.80;97.60;;;;;;5021499;28;20112;-74
2023/06/09 12:38:38;;;;;;;13.27;4.40;;;25.90;98.10;;;;;;5025243;28;20064;-74
2023/06/09 12:41:09;;;;;;;8.02;3.80;;;25.90;99.00;;;;;;5009601;28;20742;-73
2023/06/09 12:43:50;;;;;;;10.93;4.45;;;26.00;98.20;;;;;;5006369;28;20049;-73